Time;durP1;ratioP1;P1;durP2;ratioP2;P2;SDS_P1;SDS_P2;PMS_P1;PMS_P2;Temp;Humidity;BMP_temperature;BMP_pressure;BME280_temperature;BME280_humidity;BME280_pressure;Samples;Min_cycle;Max_cycle;Signal;HPM_P1;HPM_P2
2022/03/13 00:01:09;;;;;;;10.00;4.13;;;;;;;;;;4992635;28;20539;-37
2022/03/13 00:03:35;;;;;;;6.05;3.40;;;;;;;;;;4992428;28;20046;-37
2022/03/13 00:06:00;;;;;;;8.63;3.22;;;;;;;;;;4992705;28;20033;-36
2022/03/13 00:08:31;;;;;;;8.23;4.18;;;;;;;;;;4992609;28;20121;-37
2022/03/13 00:11:07;;;;;;;6.20;3.83;;;;;;;;;;4992529;28;20065;-36
2022/03/13 00:13:34;;;;;;;8.88;4.13;;;;;;;;;;4992657;28;20500;-37
2022/03/13 00:16:03;;;;;;;9.82;4.05;;;;;;;;;;4992456;28;20758;-37
2022/03/13 00:18:29;;;;;;;7.18;3.33;;;;;;;;;;4992698;28;20104;-37
2022/03/13 00:20:55;;;;;;;4.25;2.67;;;;;;;;;;4992530;28;20469;-36
2022/03/13 00:23:22;;;;;;;9.20;3.60;;;;;;;;;;4992592;28;20042;-37
2022/03/13 00:25:48;;;;;;;6.57;4.03;;;;;;;;;;4992269;28;20381;-37
2022/03/13 00:28:13;;;;;;;9.73;3.75;;;;;;;;;;4992618;28;20034;-37
2022/03/13 00:30:40;;;;;;;6.13;3.17;;;;;;;;;;4992175;28;20018;-36
2022/03/13 00:33:07;;;;;;;10.40;4.32;;;;;;;;;;4992157;28;20034;-38
2022/03/13 00:35:33;;;;;;;4.40;3.10;;;;;;;;;;4992418;28;20041;-36
2022/03/13 00:37:59;;;;;;;10.32;3.72;;;;;;;;;;4992426;28;20026;-37
2022/03/13 00:40:25;;;;;;;9.23;4.30;;;;;;;;;;4992358;28;20042;-37
2022/03/13 00:42:54;;;;;;;7.40;4.10;;;;;;;;;;4992255;28;20397;-37
2022/03/13 00:45:19;;;;;;;7.35;3.50;;;;;;;;;;4992050;28;20086;-37
2022/03/13 00:47:45;;;;;;;6.15;3.20;;;;;;;;;;4991997;28;20038;-37
2022/03/13 00:50:11;;;;;;;6.40;3.47;;;;;;;;;;4992004;28;20041;-37
2022/03/13 00:52:36;;;;;;;8.95;4.40;;;;;;;;;;4991863;28;20042;-36
2022/03/13 00:55:02;;;;;;;9.25;4.40;;;;;;;;;;4992193;28;20204;-37
2022/03/13 00:57:29;;;;;;;8.00;4.25;;;;;;;;;;4992167;28;20495;-36
2022/03/13 00:59:54;;;;;;;6.90;3.63;;;;;;;;;;4995227;28;20030;-36
2022/03/13 01:02:20;;;;;;;6.65;3.58;;;;;;;;;;4996201;28;20042;-37
2022/03/13 01:04:49;;;;;;;8.77;4.47;;;;;;;;;;4995925;28;20461;-36
2022/03/13 01:07:15;;;;;;;4.78;3.38;;;;;;;;;;4995929;28;20026;-36
2022/03/13 01:09:41;;;;;;;5.95;2.40;;;;;;;;;;4996027;28;20138;-37
2022/03/13 01:12:06;;;;;;;6.60;3.33;;;;;;;;;;4996165;28;20453;-37
2022/03/13 01:14:33;;;;;;;7.35;3.30;;;;;;;;;;4996017;28;20065;-36
2022/03/13 01:17:00;;;;;;;8.63;3.20;;;;;;;;;;4996050;28;20026;-36
2022/03/13 01:19:27;;;;;;;6.63;3.72;;;;;;;;;;4995894;28;20050;-36
2022/03/13 01:21:53;;;;;;;7.30;3.33;;;;;;;;;;4995401;28;20078;-37
2022/03/13 01:24:19;;;;;;;7.35;3.60;;;;;;;;;;4995613;28;20050;-37
2022/03/13 01:26:47;;;;;;;7.25;3.90;;;;;;;;;;4995512;28;20034;-36
2022/03/13 01:29:14;;;;;;;8.95;3.88;;;;;;;;;;4996000;28;20374;-36
2022/03/13 01:31:49;;;;;;;13.27;3.55;;;;;;;;;;4995430;28;20030;-36
2022/03/13 01:34:26;;;;;;;7.40;3.65;;;;;;;;;;4995385;28;20050;-36
2022/03/13 01:36:51;;;;;;;5.78;3.00;;;;;;;;;;4995321;28;20496;-36
2022/03/13 01:39:17;;;;;;;10.98;4.35;;;;;;;;;;4995590;28;20030;-37
2022/03/13 01:41:42;;;;;;;9.27;3.28;;;;;;;;;;4995167;28;20133;-37
2022/03/13 01:44:07;;;;;;;4.18;2.95;;;;;;;;;;4995191;28;20022;-37
2022/03/13 01:46:33;;;;;;;10.07;3.55;;;;;;;;;;4995184;28;20081;-36
2022/03/13 01:49:07;;;;;;;13.57;4.53;;;;;;;;;;4995093;28;20106;-37
2022/03/13 01:51:33;;;;;;;9.05;3.63;;;;;;;;;;4995339;28;20048;-36
2022/03/13 01:54:02;;;;;;;8.63;3.92;;;;;;;;;;4995139;28;20030;-36
2022/03/13 01:56:29;;;;;;;13.77;3.78;;;;;;;;;;4995263;28;20032;-36
2022/03/13 01:58:55;;;;;;;9.88;4.53;;;;;;;;;;4994959;28;20029;-36
2022/03/13 02:01:21;;;;;;;9.63;4.32;;;;;;;;;;4994869;28;20053;-36
2022/03/13 02:03:47;;;;;;;8.63;3.47;;;;;;;;;;4994974;28;20065;-37
2022/03/13 02:06:13;;;;;;;11.63;4.97;;;;;;;;;;4994901;28;20044;-36
2022/03/13 02:08:39;;;;;;;10.25;4.03;;;;;;;;;;4995021;28;20034;-36
2022/03/13 02:11:05;;;;;;;6.10;3.00;;;;;;;;;;4993824;28;20469;-37
2022/03/13 02:13:32;;;;;;;6.35;3.55;;;;;;;;;;4994783;28;20025;-36
2022/03/13 02:15:58;;;;;;;6.38;3.20;;;;;;;;;;4994914;28;20034;-36
2022/03/13 02:18:23;;;;;;;8.85;3.03;;;;;;;;;;4994654;28;20029;-36
2022/03/13 02:20:49;;;;;;;6.55;3.30;;;;;;;;;;4994491;28;20048;-37
2022/03/13 02:23:20;;;;;;;6.63;2.97;;;;;;;;;;4995065;28;20428;-36
2022/03/13 02:25:50;;;;;;;7.32;3.65;;;;;;;;;;4994427;28;20034;-36
2022/03/13 02:28:18;;;;;;;6.25;3.90;;;;;;;;;;4994577;28;20026;-37
2022/03/13 02:30:43;;;;;;;9.43;3.95;;;;;;;;;;4994338;28;20034;-37
2022/03/13 02:33:09;;;;;;;8.43;3.35;;;;;;;;;;4994328;28;20073;-36
2022/03/13 02:35:34;;;;;;;2.70;2.40;;;;;;;;;;4994635;28;20125;-36
2022/03/13 02:38:00;;;;;;;8.02;2.95;;;;;;;;;;4994310;28;20022;-37
2022/03/13 02:40:25;;;;;;;7.72;3.63;;;;;;;;;;4994150;28;20042;-37
2022/03/13 02:42:51;;;;;;;10.15;3.70;;;;;;;;;;4994074;28;20033;-36
2022/03/13 02:45:43;;;;;;;7.55;3.13;;;;;;;;;;4994203;28;20045;-36
2022/03/13 02:48:09;;;;;;;8.93;3.90;;;;;;;;;;4992020;28;20084;-37
2022/03/13 02:50:35;;;;;;;7.75;2.85;;;;;;;;;;4994085;28;20156;-37
2022/03/13 02:53:01;;;;;;;5.50;3.25;;;;;;;;;;4994128;28;20113;-36
2022/03/13 02:55:26;;;;;;;5.45;2.72;;;;;;;;;;4993884;28;20023;-37
2022/03/13 02:57:52;;;;;;;5.65;3.28;;;;;;;;;;4994204;28;20042;-36
2022/03/13 03:00:19;;;;;;;12.93;4.72;;;;;;;;;;4992586;28;20026;-37
2022/03/13 03:02:44;;;;;;;6.82;3.85;;;;;;;;;;4993661;28;20041;-37
2022/03/13 03:05:10;;;;;;;7.43;3.88;;;;;;;;;;4994072;28;20026;-37
2022/03/13 03:07:36;;;;;;;11.35;5.53;;;;;;;;;;4993887;28;20038;-37
2022/03/13 03:10:04;;;;;;;5.10;3.25;;;;;;;;;;4993955;28;20049;-36
2022/03/13 03:12:30;;;;;;;10.93;3.70;;;;;;;;;;4993921;28;20034;-36
2022/03/13 03:14:56;;;;;;;9.05;3.35;;;;;;;;;;4993415;28;20030;-36
2022/03/13 03:17:21;;;;;;;10.70;4.32;;;;;;;;;;4993834;28;20030;-36
2022/03/13 03:19:46;;;;;;;7.97;3.72;;;;;;;;;;4993381;28;20050;-37
2022/03/13 03:22:15;;;;;;;13.15;4.38;;;;;;;;;;4993163;28;20058;-36
2022/03/13 03:24:40;;;;;;;9.75;4.95;;;;;;;;;;4993633;28;20349;-36
2022/03/13 03:27:06;;;;;;;6.50;3.83;;;;;;;;;;4993365;28;20034;-37
2022/03/13 03:29:31;;;;;;;11.90;3.83;;;;;;;;;;4993283;28;20089;-36
2022/03/13 03:31:57;;;;;;;11.55;4.32;;;;;;;;;;4993213;28;20085;-37
2022/03/13 03:34:25;;;;;;;6.38;2.83;;;;;;;;;;4993285;28;20493;-36
2022/03/13 03:36:51;;;;;;;7.30;3.58;;;;;;;;;;4993011;28;20463;-38
2022/03/13 03:39:18;;;;;;;6.45;4.20;;;;;;;;;;4993106;28;20080;-37
2022/03/13 03:41:44;;;;;;;5.70;3.53;;;;;;;;;;4993186;28;20062;-36
2022/03/13 03:44:11;;;;;;;7.80;4.45;;;;;;;;;;4993178;28;20029;-36
2022/03/13 03:46:36;;;;;;;5.13;3.50;;;;;;;;;;4992860;28;20050;-36
2022/03/13 03:49:02;;;;;;;8.05;3.22;;;;;;;;;;4993222;28;20040;-37
2022/03/13 03:51:28;;;;;;;7.72;3.47;;;;;;;;;;4992737;28;20172;-37
2022/03/13 03:53:54;;;;;;;9.35;3.75;;;;;;;;;;4993147;28;20018;-36
2022/03/13 03:56:20;;;;;;;9.57;4.13;;;;;;;;;;4992812;28;20060;-37
2022/03/13 03:58:45;;;;;;;5.13;3.30;;;;;;;;;;4992745;28;20523;-36
2022/03/13 04:01:11;;;;;;;10.38;4.50;;;;;;;;;;4992789;28;20062;-36
2022/03/13 04:03:36;;;;;;;10.07;4.22;;;;;;;;;;4992568;28;20030;-37
2022/03/13 04:06:02;;;;;;;6.82;3.65;;;;;;;;;;4992667;28;20045;-37
2022/03/13 04:08:29;;;;;;;11.40;3.78;;;;;;;;;;4992585;28;20030;-37
2022/03/13 04:10:55;;;;;;;7.15;4.18;;;;;;;;;;4992672;28;20484;-36
2022/03/13 04:13:20;;;;;;;9.18;3.50;;;;;;;;;;4992583;28;20022;-36
2022/03/13 04:15:46;;;;;;;10.60;4.15;;;;;;;;;;4992375;28;20077;-36
2022/03/13 04:18:12;;;;;;;7.05;4.03;;;;;;;;;;4992794;28;20026;-36
2022/03/13 04:20:37;;;;;;;7.13;3.03;;;;;;;;;;4992539;28;20488;-37
2022/03/13 04:23:03;;;;;;;9.40;4.68;;;;;;;;;;4992616;28;20042;-36
2022/03/13 04:25:29;;;;;;;4.93;4.10;;;;;;;;;;4992452;28;20489;-36
2022/03/13 04:27:58;;;;;;;7.65;3.53;;;;;;;;;;4992134;28;20103;-36
2022/03/13 04:30:25;;;;;;;8.02;3.88;;;;;;;;;;4992263;28;20077;-37
2022/03/13 04:32:50;;;;;;;7.68;3.75;;;;;;;;;;4991690;28;20022;-37
2022/03/13 04:35:15;;;;;;;6.88;3.55;;;;;;;;;;4992125;28;20053;-36
2022/03/13 04:37:41;;;;;;;7.88;4.03;;;;;;;;;;4992183;28;20022;-36
2022/03/13 04:40:10;;;;;;;10.80;3.85;;;;;;;;;;4992013;28;20065;-38
2022/03/13 04:42:35;;;;;;;6.53;4.07;;;;;;;;;;4991989;28;20049;-37
2022/03/13 04:45:02;;;;;;;6.30;3.30;;;;;;;;;;4991804;28;20034;-37
2022/03/13 04:47:31;;;;;;;7.85;4.20;;;;;;;;;;4992057;28;20038;-37
2022/03/13 04:49:57;;;;;;;4.47;3.72;;;;;;;;;;4991916;28;20477;-37
2022/03/13 04:52:22;;;;;;;9.52;3.53;;;;;;;;;;4991969;28;20050;-36
2022/03/13 04:54:47;;;;;;;6.85;3.53;;;;;;;;;;4992240;28;20023;-36
2022/03/13 04:57:13;;;;;;;6.72;3.22;;;;;;;;;;4991993;28;20048;-36
2022/03/13 04:59:39;;;;;;;6.75;3.63;;;;;;;;;;4992074;28;20030;-36
2022/03/13 05:02:04;;;;;;;7.05;3.95;;;;;;;;;;4991826;28;20022;-37
2022/03/13 05:04:31;;;;;;;7.18;3.45;;;;;;;;;;4991941;28;20166;-36
2022/03/13 05:06:58;;;;;;;11.65;4.78;;;;;;;;;;4991832;28;20025;-37
2022/03/13 05:09:24;;;;;;;7.13;4.55;;;;;;;;;;4991770;28;20033;-36
2022/03/13 05:11:49;;;;;;;6.32;3.00;;;;;;;;;;4991719;28;20025;-36
2022/03/13 05:14:15;;;;;;;6.13;3.53;;;;;;;;;;5006847;28;20034;-36
2022/03/13 05:16:40;;;;;;;16.92;4.97;;;;;;;;;;4991657;28;20050;-36
2022/03/13 05:19:06;;;;;;;8.35;4.15;;;;;;;;;;4991770;28;20854;-36
2022/03/13 05:21:31;;;;;;;9.32;4.05;;;;;;;;;;4991756;28;20045;-37
2022/03/13 05:23:57;;;;;;;7.45;3.67;;;;;;;;;;4991805;28;20108;-36
2022/03/13 05:26:23;;;;;;;6.22;4.00;;;;;;;;;;4991791;28;20021;-36
2022/03/13 05:28:48;;;;;;;8.38;4.15;;;;;;;;;;4991743;28;20080;-36
2022/03/13 05:31:14;;;;;;;7.45;3.55;;;;;;;;;;4991570;28;20029;-37
2022/03/13 05:33:39;;;;;;;12.75;4.60;;;;;;;;;;4991583;28;20039;-36
2022/03/13 05:36:04;;;;;;;7.45;4.28;;;;;;;;;;4991673;28;20023;-37
2022/03/13 05:38:30;;;;;;;4.80;3.30;;;;;;;;;;5006667;28;20046;-36
2022/03/13 05:40:56;;;;;;;9.52;3.90;;;;;;;;;;4991525;28;20065;-37
2022/03/13 05:43:22;;;;;;;8.95;4.22;;;;;;;;;;4991821;28;20042;-36
2022/03/13 05:45:52;;;;;;;9.13;4.63;;;;;;;;;;4994278;28;20073;-36
2022/03/13 05:48:18;;;;;;;9.38;4.20;;;;;;;;;;4995254;28;20066;-36
2022/03/13 05:50:44;;;;;;;6.07;3.10;;;;;;;;;;4993853;28;20448;-36
2022/03/13 05:53:10;;;;;;;5.60;3.40;;;;;;;;;;4995039;28;20050;-36
2022/03/13 05:55:36;;;;;;;20.30;5.25;;;;;;;;;;4995377;28;20081;-36
2022/03/13 05:58:01;;;;;;;63.88;13.38;;;;;;;;;;4995052;28;20062;-36
2022/03/13 06:00:31;;;;;;;19.02;5.70;;;;;;;;;;4994868;28;20105;-36
2022/03/13 06:02:56;;;;;;;25.35;5.20;;;;;;;;;;4994868;28;20613;-36
2022/03/13 06:05:22;;;;;;;21.48;7.15;;;;;;;;;;4994951;28;20101;-37
2022/03/13 06:07:48;;;;;;;12.18;5.65;;;;;;;;;;4994799;28;20420;-36
2022/03/13 06:10:15;;;;;;;16.55;6.60;;;;;;;;;;4995117;28;20027;-36
2022/03/13 06:12:40;;;;;;;13.52;5.22;;;;;;;;;;4994698;28;20057;-36
2022/03/13 06:15:07;;;;;;;13.25;5.00;;;;;;;;;;4994822;28;20014;-37
2022/03/13 06:17:38;;;;;;;8.88;4.93;;;;;;;;;;4995012;28;20080;-36
2022/03/13 06:20:04;;;;;;;13.73;4.70;;;;;;;;;;4994885;28;20117;-37
2022/03/13 06:22:30;;;;;;;7.70;4.00;;;;;;;;;;4994623;28;20061;-36
2022/03/13 06:24:55;;;;;;;8.73;4.07;;;;;;;;;;5009512;28;20053;-36
2022/03/13 06:27:21;;;;;;;14.98;4.15;;;;;;;;;;4994574;28;20046;-36
2022/03/13 06:29:47;;;;;;;9.50;3.88;;;;;;;;;;4994356;28;20035;-36
2022/03/13 06:32:13;;;;;;;13.63;5.82;;;;;;;;;;4993338;28;20049;-36
2022/03/13 06:34:38;;;;;;;11.38;4.72;;;;;;;;;;4994595;28;20461;-36
2022/03/13 06:37:04;;;;;;;11.30;3.72;;;;;;;;;;4994651;28;20026;-37
2022/03/13 06:39:30;;;;;;;8.30;4.68;;;;;;;;;;4994400;28;20034;-36
2022/03/13 06:41:56;;;;;;;10.23;4.07;;;;;;;;;;4994051;28;20068;-36
2022/03/13 06:44:22;;;;;;;7.10;3.97;;;;;;;;;;4994264;28;20358;-36
2022/03/13 06:46:48;;;;;;;6.68;3.13;;;;;;;;;;4993940;28;20049;-36
2022/03/13 06:49:14;;;;;;;7.90;3.85;;;;;;;;;;4994189;28;20049;-36
2022/03/13 06:51:40;;;;;;;12.40;4.15;;;;;;;;;;4994270;28;20027;-36
2022/03/13 06:54:09;;;;;;;7.55;4.40;;;;;;;;;;4993969;28;20042;-35
2022/03/13 06:56:35;;;;;;;7.95;3.78;;;;;;;;;;4993435;28;20042;-36
2022/03/13 06:59:03;;;;;;;7.97;3.78;;;;;;;;;;4993751;28;20030;-37
2022/03/13 07:01:33;;;;;;;10.15;4.20;;;;;;;;;;4993901;28;20109;-36
2022/03/13 07:03:59;;;;;;;11.30;3.88;;;;;;;;;;4993711;28;20040;-36
2022/03/13 07:06:24;;;;;;;8.18;4.70;;;;;;;;;;4993820;28;20365;-36
2022/03/13 07:08:50;;;;;;;7.07;3.42;;;;;;;;;;4993927;28;20026;-37
2022/03/13 07:11:16;;;;;;;5.75;3.63;;;;;;;;;;4993664;28;20100;-36
2022/03/13 07:13:45;;;;;;;7.47;3.78;;;;;;;;;;5008639;28;20042;-36
2022/03/13 07:16:10;;;;;;;7.93;3.55;;;;;;;;;;4992345;28;20500;-36
2022/03/13 07:18:38;;;;;;;6.75;3.58;;;;;;;;;;4993695;28;20101;-36
2022/03/13 07:21:03;;;;;;;6.20;3.55;;;;;;;;;;4993411;28;20018;-36
2022/03/13 07:23:29;;;;;;;10.82;4.93;;;;;;;;;;4993370;28;20093;-36
2022/03/13 07:25:55;;;;;;;5.55;2.78;;;;;;;;;;4993318;28;20101;-37
2022/03/13 07:28:20;;;;;;;7.80;3.85;;;;;;;;;;4993412;28;20441;-36
2022/03/13 07:30:48;;;;;;;6.95;3.40;;;;;;;;;;4993159;28;20019;-36
2022/03/13 07:33:13;;;;;;;8.38;4.25;;;;;;;;;;4993220;28;20470;-36
2022/03/13 07:35:39;;;;;;;8.07;4.03;;;;;;;;;;4993573;28;20027;-36
2022/03/13 07:38:04;;;;;;;10.77;4.03;;;;;;;;;;4993027;28;20588;-36
2022/03/13 07:40:30;;;;;;;12.10;5.30;;;;;;;;;;4993408;28;20026;-37
2022/03/13 07:42:57;;;;;;;11.60;4.15;;;;;;;;;;4992927;28;20046;-36
2022/03/13 07:45:24;;;;;;;10.15;4.63;;;;;;;;;;4992823;28;20109;-36
2022/03/13 07:47:50;;;;;;;9.90;3.45;;;;;;;;;;4993292;28;20042;-36
2022/03/13 07:50:16;;;;;;;6.63;3.58;;;;;;;;;;4992897;28;20420;-36
2022/03/13 07:52:42;;;;;;;9.88;4.75;;;;;;;;;;4992850;28;20026;-35
2022/03/13 07:55:07;;;;;;;10.50;3.17;;;;;;;;;;4992855;28;20010;-36
2022/03/13 07:57:33;;;;;;;8.20;3.58;;;;;;;;;;4992810;28;20130;-36
2022/03/13 07:59:58;;;;;;;9.70;3.50;;;;;;;;;;4992658;28;20054;-36
2022/03/13 08:02:24;;;;;;;8.55;3.65;;;;;;;;;;4991444;28;20505;-37
2022/03/13 08:04:49;;;;;;;6.03;3.47;;;;;;;;;;4992666;28;20034;-36
2022/03/13 08:07:15;;;;;;;10.32;4.78;;;;;;;;;;4992701;28;20027;-36
2022/03/13 08:09:41;;;;;;;8.68;4.13;;;;;;;;;;4991869;28;20023;-36
2022/03/13 08:12:07;;;;;;;8.90;2.88;;;;;;;;;;4992597;28;20030;-39
2022/03/13 08:14:32;;;;;;;8.23;3.30;;;;;;;;;;4992484;28;20026;-36
2022/03/13 08:16:58;;;;;;;6.18;2.92;;;;;;;;;;4992474;28;20118;-36
2022/03/13 08:19:23;;;;;;;8.80;4.78;;;;;;;;;;4992459;28;20350;-36
2022/03/13 08:21:49;;;;;;;4.90;3.53;;;;;;;;;;4992184;28;20580;-36
2022/03/13 08:24:15;;;;;;;8.82;4.32;;;;;;;;;;4992529;28;20037;-36
2022/03/13 08:26:41;;;;;;;10.10;3.75;;;;;;;;;;4992662;28;20030;-36
2022/03/13 08:29:07;;;;;;;12.20;3.35;;;;;;;;;;4992172;28;20519;-36
2022/03/13 08:31:33;;;;;;;8.55;4.72;;;;;;;;;;4992617;28;20034;-36
2022/03/13 08:33:59;;;;;;;5.68;3.45;;;;;;;;;;4990866;28;20068;-36
2022/03/13 08:36:27;;;;;;;9.48;4.07;;;;;;;;;;4992181;28;20026;-36
2022/03/13 08:38:53;;;;;;;7.40;3.35;;;;;;;;;;4992033;28;20030;-36
2022/03/13 08:41:20;;;;;;;7.88;4.40;;;;;;;;;;4992134;28;20088;-36
2022/03/13 08:43:46;;;;;;;11.82;3.72;;;;;;;;;;4992141;28;20480;-36
2022/03/13 08:46:15;;;;;;;11.98;4.20;;;;;;;;;;4991982;28;20493;-39
2022/03/13 08:48:40;;;;;;;9.98;4.22;;;;;;;;;;4992298;28;20033;-36
2022/03/13 08:51:06;;;;;;;10.07;3.67;;;;;;;;;;4991906;28;20034;-36
2022/03/13 08:53:31;;;;;;;10.52;4.43;;;;;;;;;;4992266;28;20106;-36
2022/03/13 08:55:57;;;;;;;9.55;4.30;;;;;;;;;;4991943;28;20030;-37
2022/03/13 08:58:23;;;;;;;7.72;4.03;;;;;;;;;;4991855;28;20106;-37
2022/03/13 09:00:51;;;;;;;9.38;4.32;;;;;;;;;;4991844;28;20041;-36
2022/03/13 09:03:16;;;;;;;6.68;4.45;;;;;;;;;;4991826;28;20026;-36
2022/03/13 09:05:42;;;;;;;7.93;2.88;;;;;;;;;;4992049;28;20060;-36
2022/03/13 09:08:08;;;;;;;6.15;3.03;;;;;;;;;;4991895;28;20521;-37
2022/03/13 09:10:34;;;;;;;7.22;3.33;;;;;;;;;;4991739;28;20409;-37
2022/03/13 09:13:00;;;;;;;8.68;3.08;;;;;;;;;;4991817;28;20461;-36
2022/03/13 09:15:26;;;;;;;4.57;3.00;;;;;;;;;;4992069;28;20027;-37
2022/03/13 09:17:54;;;;;;;4.72;3.38;;;;;;;;;;4991939;28;20030;-37
2022/03/13 09:20:21;;;;;;;4.97;3.03;;;;;;;;;;4994108;28;20468;-37
2022/03/13 09:22:46;;;;;;;7.68;3.35;;;;;;;;;;4995746;28;20057;-36
2022/03/13 09:25:12;;;;;;;6.93;3.30;;;;;;;;;;4995687;28;20034;-37
2022/03/13 09:27:38;;;;;;;6.05;2.67;;;;;;;;;;4995629;28;20033;-37
2022/03/13 09:30:04;;;;;;;4.22;2.90;;;;;;;;;;4995416;28;20030;-36
2022/03/13 09:32:31;;;;;;;5.95;2.72;;;;;;;;;;4995859;28;20030;-38
2022/03/13 09:34:56;;;;;;;5.72;3.35;;;;;;;;;;4995326;28;20563;-36
2022/03/13 09:37:23;;;;;;;2.00;1.75;;;;;;;;;;4995787;28;20038;-36
2022/03/13 09:39:49;;;;;;;6.30;2.05;;;;;;;;;;4995319;28;20118;-37
2022/03/13 09:42:15;;;;;;;4.07;2.50;;;;;;;;;;4995257;28;20457;-36
2022/03/13 09:44:40;;;;;;;4.30;1.85;;;;;;;;;;4995676;28;20034;-36
2022/03/13 09:47:06;;;;;;;4.78;1.88;;;;;;;;;;4993825;28;20046;-36
2022/03/13 09:49:32;;;;;;;4.40;3.08;;;;;;;;;;4995204;28;20038;-36
2022/03/13 09:51:58;;;;;;;3.88;2.53;;;;;;;;;;4995016;28;20080;-36
2022/03/13 09:54:24;;;;;;;3.05;2.47;;;;;;;;;;4995370;28;20054;-36
2022/03/13 09:56:50;;;;;;;4.90;2.08;;;;;;;;;;4995068;28;20030;-36
2022/03/13 09:59:16;;;;;;;3.95;1.88;;;;;;;;;;4995022;28;20032;-36
2022/03/13 10:01:41;;;;;;;4.65;2.50;;;;;;;;;;4995227;28;20026;-36
2022/03/13 10:04:06;;;;;;;1.00;0.68;;;;;;;;;;4995427;28;20092;-37
2022/03/13 10:06:42;;;;;;;5.13;1.42;;;;;;;;;;4994838;28;20058;-36
2022/03/13 10:09:24;;;;;;;3.45;1.70;;;;;;;;;;4993597;28;20026;-36
2022/03/13 10:12:02;;;;;;;3.72;1.65;;;;;;;;;;4994691;28;20034;-37
2022/03/13 10:14:27;;;;;;;2.72;1.45;;;;;;;;;;5009920;28;20046;-36
2022/03/13 10:16:52;;;;;;;4.38;2.20;;;;;;;;;;4994573;28;20029;-36
2022/03/13 10:19:18;;;;;;;4.35;2.45;;;;;;;;;;4994925;28;20026;-41
2022/03/13 10:22:01;;;;;;;2.00;1.83;;;;;;;;;;4994780;28;20018;-36
2022/03/13 10:24:28;;;;;;;2.60;1.40;;;;;;;;;;4994609;28;20042;-36
2022/03/13 10:27:13;;;;;;;4.43;1.98;;;;;;;;;;4993207;28;20037;-37
2022/03/13 10:29:39;;;;;;;3.40;1.58;;;;;;;;;;4994413;28;20477;-36
2022/03/13 10:32:05;;;;;;;4.25;1.98;;;;;;;;;;4993429;28;20035;-36
2022/03/13 10:34:35;;;;;;;1.13;1.02;;;;;;;;;;4994762;28;20073;-36
2022/03/13 10:37:03;;;;;;;6.65;2.90;;;;;;;;;;4994421;28;20030;-36
2022/03/13 10:39:30;;;;;;;2.72;1.77;;;;;;;;;;4994276;28;20030;-37
2022/03/13 10:42:02;;;;;;;3.55;2.03;;;;;;;;;;4994172;28;20362;-36
2022/03/13 10:44:34;;;;;;;2.88;1.88;;;;;;;;;;4994468;28;20500;-36
2022/03/13 10:47:05;;;;;;;4.72;2.40;;;;;;;;;;4993978;28;20058;-36
2022/03/13 10:49:31;;;;;;;9.68;1.88;;;;;;;;;;4994104;28;20469;-36
2022/03/13 10:51:57;;;;;;;4.72;1.85;;;;;;;;;;4994246;28;20077;-36
2022/03/13 10:54:28;;;;;;;2.00;1.83;;;;;;;;;;4994060;28;20033;-36
2022/03/13 10:57:05;;;;;;;4.45;2.08;;;;;;;;;;4994217;28;20070;-37
2022/03/13 10:59:30;;;;;;;1.52;1.40;;;;;;;;;;4994147;28;20117;-36
2022/03/13 11:02:14;;;;;;;3.85;1.58;;;;;;;;;;4993725;28;20109;-37
2022/03/13 11:04:46;;;;;;;1.95;1.30;;;;;;;;;;4993887;28;20066;-36
2022/03/13 11:07:12;;;;;;;4.40;2.15;;;;;;;;;;4994135;28;20456;-37
2022/03/13 11:09:38;;;;;;;3.58;2.47;;;;;;;;;;4992430;28;20026;-37
2022/03/13 11:12:09;;;;;;;1.98;1.50;;;;;;;;;;4993900;28;20030;-36
2022/03/13 11:14:35;;;;;;;5.43;2.58;;;;;;;;;;4993934;28;20066;-38
2022/03/13 11:17:01;;;;;;;2.75;1.80;;;;;;;;;;4993598;28;20018;-36
2022/03/13 11:19:28;;;;;;;4.53;2.47;;;;;;;;;;4993797;28;20062;-36
2022/03/13 11:21:54;;;;;;;9.15;1.70;;;;;;;;;;4993403;28;20022;-37
2022/03/13 11:24:20;;;;;;;2.70;1.67;;;;;;;;;;4993625;28;20038;-36
2022/03/13 11:26:46;;;;;;;4.32;2.05;;;;;;;;;;4993564;28;20044;-36
2022/03/13 11:29:13;;;;;;;8.85;2.22;;;;;;;;;;4993282;28;20069;-36
2022/03/13 11:31:42;;;;;;;7.47;2.95;;;;;;;;;;4993370;28;20018;-36
2022/03/13 11:34:12;;;;;;;6.07;2.95;;;;;;;;;;4993104;28;20493;-36
2022/03/13 11:36:39;;;;;;;2.92;2.13;;;;;;;;;;4993388;28;20068;-37
2022/03/13 11:39:06;;;;;;;6.10;1.95;;;;;;;;;;4993070;28;20133;-36
2022/03/13 11:41:36;;;;;;;3.10;1.70;;;;;;;;;;4993273;28;20045;-36
2022/03/13 11:44:02;;;;;;;2.22;1.60;;;;;;;;;;4992850;28;20038;-36
2022/03/13 11:46:45;;;;;;;2.78;1.85;;;;;;;;;;4992926;28;20046;-36
2022/03/13 11:49:17;;;;;;;3.00;1.98;;;;;;;;;;4992806;28;20551;-36
2022/03/13 11:51:45;;;;;;;6.63;2.10;;;;;;;;;;4992858;28;20030;-37
2022/03/13 11:54:14;;;;;;;5.50;2.25;;;;;;;;;;4992816;28;20018;-36
2022/03/13 11:56:50;;;;;;;2.42;1.60;;;;;;;;;;4992727;28;20034;-37
2022/03/13 11:59:18;;;;;;;3.55;1.75;;;;;;;;;;4992770;28;20482;-36
2022/03/13 12:01:45;;;;;;;3.10;1.83;;;;;;;;;;4992630;28;20023;-36
2022/03/13 12:04:11;;;;;;;5.82;2.25;;;;;;;;;;4992659;28;20401;-36
2022/03/13 12:06:39;;;;;;;2.85;1.80;;;;;;;;;;4992679;28;20031;-36
2022/03/13 12:09:06;;;;;;;9.50;2.08;;;;;;;;;;4992350;28;20034;-36
2022/03/13 12:11:34;;;;;;;3.88;1.98;;;;;;;;;;4992578;28;20033;-36
2022/03/13 12:14:00;;;;;;;3.80;2.00;;;;;;;;;;4992521;28;20477;-37
2022/03/13 12:16:26;;;;;;;3.75;2.50;;;;;;;;;;4992671;28;20038;-36
2022/03/13 12:18:58;;;;;;;3.45;1.27;;;;;;;;;;4992324;28;20756;-36
2022/03/13 12:21:24;;;;;;;4.18;2.28;;;;;;;;;;4992435;28;20030;-37
2022/03/13 12:23:50;;;;;;;3.63;2.00;;;;;;;;;;4992031;28;20042;-36
2022/03/13 12:26:15;;;;;;;5.35;2.38;;;;;;;;;;4992399;28;20250;-37
2022/03/13 12:28:41;;;;;;;4.20;2.78;;;;;;;;;;5007400;28;20026;-37
2022/03/13 12:31:07;;;;;;;3.83;1.77;;;;;;;;;;4992356;28;20077;-37
2022/03/13 12:33:35;;;;;;;2.70;2.33;;;;;;;;;;4992230;28;20066;-36
2022/03/13 12:36:02;;;;;;;4.90;2.35;;;;;;;;;;4992080;28;20057;-37
2022/03/13 12:38:28;;;;;;;6.03;1.85;;;;;;;;;;4992095;28;20032;-36
2022/03/13 12:40:54;;;;;;;3.58;2.65;;;;;;;;;;4992075;28;20030;-37
2022/03/13 12:43:20;;;;;;;7.45;2.47;;;;;;;;;;4991944;28;20521;-37
2022/03/13 12:45:55;;;;;;;6.47;2.55;;;;;;;;;;4991901;28;20054;-36
2022/03/13 12:48:21;;;;;;;5.38;2.30;;;;;;;;;;4992290;28;20026;-36
2022/03/13 12:50:47;;;;;;;10.95;3.17;;;;;;;;;;4991950;28;20037;-37
2022/03/13 12:53:24;;;;;;;3.10;2.50;;;;;;;;;;4991867;28;20030;-37
2022/03/13 12:55:50;;;;;;;3.33;2.25;;;;;;;;;;4991433;28;20069;-38
2022/03/13 12:58:16;;;;;;;3.13;2.05;;;;;;;;;;4991849;28;20373;-37
2022/03/13 13:00:43;;;;;;;3.30;2.40;;;;;;;;;;4992181;28;20121;-37
2022/03/13 13:03:13;;;;;;;3.15;2.17;;;;;;;;;;4992069;28;20049;-37
2022/03/13 13:05:47;;;;;;;3.75;2.15;;;;;;;;;;4992183;28;20113;-37
2022/03/13 13:08:12;;;;;;;4.53;2.83;;;;;;;;;;4991781;28;20559;-36
2022/03/13 13:10:38;;;;;;;4.80;1.95;;;;;;;;;;5006881;28;20030;-37
2022/03/13 13:13:08;;;;;;;4.72;2.35;;;;;;;;;;4991999;28;20399;-36
2022/03/13 13:15:34;;;;;;;3.05;2.13;;;;;;;;;;4992050;28;20396;-37
2022/03/13 13:18:00;;;;;;;3.17;1.60;;;;;;;;;;4992040;28;20105;-37
2022/03/13 13:20:26;;;;;;;4.18;2.35;;;;;;;;;;4992003;28;20481;-36
2022/03/13 13:23:07;;;;;;;2.55;2.22;;;;;;;;;;4991629;28;20041;-36
2022/03/13 13:25:34;;;;;;;6.22;2.25;;;;;;;;;;4991770;28;20042;-36
2022/03/13 13:28:02;;;;;;;3.25;1.33;;;;;;;;;;4991476;28;20065;-37
2022/03/13 13:30:29;;;;;;;2.88;1.90;;;;;;;;;;4991738;28;20529;-36
2022/03/13 13:33:03;;;;;;;3.15;2.30;;;;;;;;;;4991808;28;20085;-36
2022/03/13 13:35:34;;;;;;;3.78;2.10;;;;;;;;;;4991649;28;20030;-36
2022/03/13 13:38:03;;;;;;;5.25;1.80;;;;;;;;;;4991366;28;20049;-36
2022/03/13 13:40:30;;;;;;;4.55;2.55;;;;;;;;;;4991879;28;20029;-37
2022/03/13 13:43:06;;;;;;;3.72;2.03;;;;;;;;;;4991270;28;20492;-37
2022/03/13 13:45:32;;;;;;;1.50;1.40;;;;;;;;;;4991500;28;20054;-37
2022/03/13 13:48:16;;;;;;;1.33;1.15;;;;;;;;;;4991273;28;20030;-37
2022/03/13 13:50:43;;;;;;;4.22;2.40;;;;;;;;;;5006440;28;20508;-36
2022/03/13 13:53:09;;;;;;;2.22;1.55;;;;;;;;;;4991334;28;20030;-37
2022/03/13 13:55:35;;;;;;;6.25;1.95;;;;;;;;;;4991674;28;20035;-37
2022/03/13 13:58:16;;;;;;;4.97;1.80;;;;;;;;;;4991256;28;20022;-37
2022/03/13 14:00:42;;;;;;;8.90;2.30;;;;;;;;;;4991377;28;20035;-37
2022/03/13 14:03:08;;;;;;;10.55;2.72;;;;;;;;;;4991335;28;20034;-36
2022/03/13 14:05:34;;;;;;;3.78;2.03;;;;;;;;;;4991291;28;20035;-37
2022/03/13 14:08:00;;;;;;;3.58;1.58;;;;;;;;;;4993070;28;20026;-37
2022/03/13 14:10:26;;;;;;;3.53;1.98;;;;;;;;;;4994794;28;20070;-37
2022/03/13 14:12:52;;;;;;;2.60;1.67;;;;;;;;;;4994992;28;20030;-37
2022/03/13 14:15:19;;;;;;;3.10;1.77;;;;;;;;;;4993438;28;20755;-37
2022/03/13 14:17:45;;;;;;;1.95;1.63;;;;;;;;;;4994898;28;20060;-37
2022/03/13 14:20:11;;;;;;;2.05;1.55;;;;;;;;;;4994808;28;20490;-37
2022/03/13 14:22:37;;;;;;;2.63;1.75;;;;;;;;;;4994569;28;20022;-37
2022/03/13 14:25:03;;;;;;;3.78;1.60;;;;;;;;;;4994415;28;20038;-37
2022/03/13 14:27:29;;;;;;;1.98;1.10;;;;;;;;;;4994582;28;20029;-37
2022/03/13 14:29:55;;;;;;;2.80;1.73;;;;;;;;;;4994512;28;20026;-37
2022/03/13 14:32:21;;;;;;;1.95;1.50;;;;;;;;;;4994242;28;20025;-37
2022/03/13 14:34:47;;;;;;;3.15;1.80;;;;;;;;;;4994398;28;20026;-37
2022/03/13 14:37:12;;;;;;;6.35;2.20;;;;;;;;;;4994531;28;20539;-36
2022/03/13 14:39:38;;;;;;;3.72;1.88;;;;;;;;;;4994192;28;20508;-37